createdAt,value
2017-09-14T00:00:19.167Z,3.00
2017-09-14T00:02:46.797Z,2.85
2017-09-14T00:05:14.391Z,2.28
2017-09-14T00:07:41.982Z,1.58
2017-09-14T00:10:09.565Z,5.15
2017-09-14T00:12:37.146Z,1.40
2017-09-14T00:15:04.796Z,3.00
2017-09-14T00:17:32.449Z,1.75
2017-09-14T00:20:01.022Z,3.30
2017-09-14T00:22:28.674Z,3.30
2017-09-14T00:24:56.413Z,4.32
2017-09-14T00:27:25.598Z,2.60
2017-09-14T00:29:53.188Z,7.18
2017-09-14T00:32:21.384Z,5.03
2017-09-14T00:34:49.849Z,3.55
2017-09-14T00:37:17.543Z,2.55
2017-09-14T00:39:45.154Z,4.07
2017-09-14T00:42:13.505Z,5.55
2017-09-14T00:44:41.529Z,2.75
2017-09-14T00:47:09.141Z,7.57
2017-09-14T00:49:36.762Z,4.37
2017-09-14T00:52:04.364Z,10.98
2017-09-14T00:54:31.940Z,12.02
2017-09-14T00:57:00.387Z,4.65
2017-09-14T00:59:28.105Z,4.35
2017-09-14T01:01:55.721Z,12.50
2017-09-14T01:04:23.362Z,5.43
2017-09-14T01:06:51.022Z,7.03
2017-09-14T01:09:18.607Z,5.30
2017-09-14T01:11:47.370Z,7.72
2017-09-14T01:14:15.000Z,9.93
2017-09-14T01:16:42.626Z,7.32
2017-09-14T01:19:11.042Z,12.98
2017-09-14T01:21:38.622Z,9.23
2017-09-14T01:24:06.242Z,10.18
2017-09-14T01:26:34.595Z,12.98
2017-09-14T01:29:02.210Z,11.48
2017-09-14T01:31:29.901Z,14.52
2017-09-14T01:33:57.512Z,13.27
2017-09-14T01:36:25.138Z,12.48
2017-09-14T01:38:53.547Z,13.00
2017-09-14T01:41:21.907Z,16.62
2017-09-14T01:43:49.510Z,18.15
2017-09-14T01:46:17.146Z,16.83
2017-09-14T01:48:45.539Z,17.80
2017-09-14T01:51:13.569Z,18.48
2017-09-14T01:53:41.247Z,22.08
2017-09-14T01:56:08.838Z,18.90
2017-09-14T01:58:36.467Z,15.98
2017-09-14T02:01:04.131Z,19.80
2017-09-14T02:03:32.135Z,21.50
2017-09-14T02:05:59.730Z,17.02
2017-09-14T02:08:27.396Z,15.85
2017-09-14T02:10:55.556Z,18.10
2017-09-14T02:13:23.129Z,19.62
2017-09-14T02:15:50.770Z,15.05
2017-09-14T02:18:18.372Z,15.48
2017-09-14T02:20:46.561Z,16.35
2017-09-14T02:23:14.932Z,12.80
2017-09-14T02:25:43.351Z,16.10
2017-09-14T02:28:10.995Z,17.10
2017-09-14T02:30:38.613Z,21.08
2017-09-14T02:33:06.179Z,13.18
2017-09-14T02:35:33.865Z,11.27
2017-09-14T02:38:02.240Z,17.92
2017-09-14T02:40:29.891Z,22.45
2017-09-14T02:42:58.280Z,12.57
2017-09-14T02:45:25.917Z,16.92
2017-09-14T02:47:53.605Z,10.48
2017-09-14T02:50:21.967Z,10.43
2017-09-14T02:52:49.610Z,11.48
2017-09-14T02:55:17.254Z,14.18
2017-09-14T02:57:44.909Z,8.95
2017-09-14T03:00:12.558Z,17.00
2017-09-14T03:02:40.148Z,11.07
2017-09-14T03:05:07.763Z,10.13
2017-09-14T03:07:35.569Z,13.00
2017-09-14T03:10:04.090Z,14.60
2017-09-14T03:12:32.493Z,7.45
2017-09-14T03:15:00.896Z,14.98
2017-09-14T03:17:28.529Z,12.90
2017-09-14T03:19:56.925Z,11.05
2017-09-14T03:22:25.300Z,5.40
2017-09-14T03:24:52.898Z,8.18
2017-09-14T03:27:20.512Z,17.33
2017-09-14T03:29:48.882Z,9.85
2017-09-14T03:32:17.343Z,13.05
2017-09-14T03:34:44.983Z,13.68
2017-09-14T03:37:12.640Z,16.33
2017-09-14T03:39:40.227Z,12.27
2017-09-14T03:42:08.606Z,10.75
2017-09-14T03:44:36.210Z,10.82
2017-09-14T03:47:03.858Z,12.30
2017-09-14T03:49:31.456Z,11.43
2017-09-14T03:51:59.028Z,12.57
2017-09-14T03:54:27.426Z,12.20
2017-09-14T03:56:55.116Z,15.15
2017-09-14T03:59:22.733Z,15.23
2017-09-14T04:01:50.321Z,11.90
2017-09-14T04:04:17.963Z,22.75
2017-09-14T04:06:46.629Z,18.67
2017-09-14T04:09:14.396Z,22.50
2017-09-14T04:11:42.777Z,18.40
2017-09-14T04:14:10.444Z,17.77
2017-09-14T04:16:38.031Z,14.35
2017-09-14T04:19:06.492Z,12.05
2017-09-14T04:21:34.073Z,17.40
2017-09-14T04:24:01.668Z,16.20
2017-09-14T04:26:29.265Z,17.83
2017-09-14T04:28:56.935Z,8.57
2017-09-14T04:31:26.338Z,12.40
2017-09-14T04:33:53.921Z,14.80
2017-09-14T04:36:21.456Z,14.57
2017-09-14T04:38:49.106Z,12.37
2017-09-14T04:41:16.739Z,19.02
2017-09-14T04:43:44.331Z,18.17
2017-09-14T04:46:12.091Z,17.75
2017-09-14T04:48:39.648Z,26.87
2017-09-14T04:51:07.256Z,19.65
2017-09-14T04:53:36.817Z,21.10
2017-09-14T04:56:04.484Z,15.55
2017-09-14T04:58:32.057Z,20.45
2017-09-14T05:00:59.687Z,26.83
2017-09-14T05:03:27.340Z,22.25
2017-09-14T05:05:54.960Z,16.25
2017-09-14T05:08:22.633Z,25.73
2017-09-14T05:10:50.970Z,25.33
2017-09-14T05:13:18.589Z,20.48
2017-09-14T05:15:46.193Z,14.77
2017-09-14T05:18:13.795Z,17.40
2017-09-14T05:20:42.231Z,22.62
2017-09-14T05:23:09.801Z,12.98
2017-09-14T05:25:37.446Z,17.58
2017-09-14T05:28:05.094Z,21.17
2017-09-14T05:30:32.764Z,16.05
2017-09-14T05:33:00.376Z,20.00
2017-09-14T05:35:28.766Z,13.73
2017-09-14T05:37:56.339Z,21.62
2017-09-14T05:40:23.981Z,18.02
2017-09-14T05:42:51.564Z,11.25
2017-09-14T05:45:19.160Z,13.77
2017-09-14T05:47:46.791Z,12.25
2017-09-14T05:50:14.411Z,19.05
2017-09-14T05:52:42.366Z,11.73
2017-09-14T05:55:10.064Z,15.07
2017-09-14T05:57:37.789Z,8.20
2017-09-14T06:00:05.405Z,22.05
2017-09-14T06:02:33.013Z,18.83
2017-09-14T06:05:01.575Z,11.98
2017-09-14T06:07:29.279Z,11.48
2017-09-14T06:09:57.871Z,12.18
2017-09-14T06:12:26.655Z,16.15
2017-09-14T06:14:55.054Z,9.68
2017-09-14T06:17:22.700Z,8.20
2017-09-14T06:19:51.111Z,8.88
2017-09-14T06:22:18.717Z,8.93
2017-09-14T06:24:46.315Z,14.23
2017-09-14T06:27:13.949Z,14.75
2017-09-14T06:29:41.573Z,16.45
2017-09-14T06:32:09.160Z,10.13
2017-09-14T06:34:37.597Z,10.02
2017-09-14T06:37:05.210Z,16.08
2017-09-14T06:39:33.584Z,8.23
2017-09-14T06:42:01.278Z,11.82
2017-09-14T06:44:30.790Z,13.55
2017-09-14T06:46:58.405Z,18.62
2017-09-14T06:49:26.029Z,12.07
2017-09-14T06:51:53.597Z,17.87
2017-09-14T06:54:21.737Z,10.75
2017-09-14T06:56:49.461Z,11.70
2017-09-14T06:59:17.131Z,13.55
2017-09-14T07:01:44.740Z,15.20
2017-09-14T07:04:12.368Z,28.85
2017-09-14T07:06:40.747Z,15.27
2017-09-14T07:09:09.994Z,16.67
2017-09-14T07:11:37.657Z,22.02
2017-09-14T07:14:05.269Z,17.35
2017-09-14T07:16:33.676Z,16.27
2017-09-14T07:19:01.288Z,20.83
2017-09-14T07:21:29.659Z,8.60
2017-09-14T07:23:57.247Z,12.27
2017-09-14T07:26:25.626Z,17.62
2017-09-14T07:28:54.032Z,13.45
2017-09-14T07:31:21.655Z,16.15
2017-09-14T07:33:49.294Z,19.55
2017-09-14T07:36:17.799Z,13.30
2017-09-14T07:38:46.176Z,18.33
2017-09-14T07:41:13.823Z,16.25
2017-09-14T07:43:41.490Z,12.60
2017-09-14T07:46:09.103Z,10.57
2017-09-14T07:48:36.676Z,8.32
2017-09-14T07:51:04.270Z,7.72
2017-09-14T07:53:31.932Z,2.30
2017-09-14T07:55:59.541Z,5.80
2017-09-14T07:58:27.200Z,6.05
2017-09-14T08:00:54.887Z,3.03
2017-09-14T08:03:22.529Z,1.45
2017-09-14T08:05:50.241Z,2.78
2017-09-14T08:08:18.058Z,2.00
2017-09-14T08:10:45.693Z,2.80
2017-09-14T08:13:14.024Z,3.80
2017-09-14T08:15:42.535Z,1.55
2017-09-14T08:18:10.220Z,4.82
2017-09-14T08:20:38.579Z,3.87
2017-09-14T08:23:06.164Z,6.25
2017-09-14T08:25:33.805Z,4.57
2017-09-14T08:28:02.177Z,2.75
2017-09-14T08:30:30.624Z,2.83
2017-09-14T08:32:58.252Z,3.12
2017-09-14T08:35:25.874Z,5.25
2017-09-14T08:37:54.225Z,3.80
2017-09-14T08:40:21.807Z,1.70
2017-09-14T08:42:49.401Z,4.60
2017-09-14T08:45:17.752Z,1.87
2017-09-14T08:47:45.448Z,3.50
2017-09-14T08:50:13.057Z,3.75
2017-09-14T08:52:40.709Z,6.20
2017-09-14T08:55:08.329Z,6.60
2017-09-14T08:57:35.912Z,7.93
2017-09-14T09:00:03.536Z,7.65
2017-09-14T09:02:31.138Z,3.45
2017-09-14T09:04:58.763Z,5.15
2017-09-14T09:07:26.387Z,7.65
2017-09-14T09:09:54.006Z,4.82
2017-09-14T09:12:21.638Z,6.70
2017-09-14T09:14:50.117Z,5.57
2017-09-14T09:17:18.497Z,4.40
2017-09-14T09:19:46.129Z,11.40
2017-09-14T09:22:13.781Z,4.40
2017-09-14T09:24:41.384Z,5.57
2017-09-14T09:27:09.799Z,2.55
2017-09-14T09:29:37.720Z,11.23
2017-09-14T09:32:05.313Z,2.95
2017-09-14T09:34:32.913Z,3.17
2017-09-14T09:37:01.063Z,2.22
2017-09-14T09:39:28.705Z,2.30
2017-09-14T09:41:56.333Z,3.60
2017-09-14T09:44:23.958Z,6.32
2017-09-14T09:46:51.526Z,5.03
2017-09-14T09:49:19.083Z,1.85
2017-09-14T09:51:46.713Z,2.15
2017-09-14T09:54:14.277Z,2.10
2017-09-14T09:56:41.849Z,1.42
2017-09-14T09:59:09.428Z,1.00
2017-09-14T10:01:37.058Z,1.87
2017-09-14T10:04:04.694Z,1.33
2017-09-14T10:06:33.444Z,1.95
2017-09-14T10:09:01.044Z,1.10
2017-09-14T10:11:29.442Z,1.77
2017-09-14T10:13:57.063Z,1.50
2017-09-14T10:16:24.661Z,1.20
2017-09-14T10:18:52.262Z,2.55
2017-09-14T10:21:19.871Z,3.80
2017-09-14T10:23:47.513Z,2.15
2017-09-14T10:26:15.895Z,1.30
2017-09-14T10:28:43.558Z,2.08
2017-09-14T10:31:11.965Z,1.40
2017-09-14T10:36:30.444Z,1.20
2017-09-14T10:38:58.425Z,3.92
2017-09-14T10:41:26.083Z,1.73
2017-09-14T10:43:53.733Z,1.35
2017-09-14T10:46:21.392Z,5.90
2017-09-14T10:48:49.025Z,7.72
2017-09-14T10:51:18.329Z,0.90
2017-09-14T10:53:45.929Z,1.92
2017-09-14T10:56:13.583Z,3.50
2017-09-14T10:58:41.184Z,2.00
2017-09-14T11:01:09.432Z,1.62
2017-09-14T11:03:37.069Z,2.40
2017-09-14T11:06:04.708Z,11.30
2017-09-14T11:08:32.311Z,6.78
2017-09-14T11:11:00.542Z,1.45
2017-09-14T11:13:29.010Z,2.05
2017-09-14T11:15:56.643Z,4.37
2017-09-14T11:18:24.226Z,5.32
2017-09-14T11:20:51.871Z,1.70
2017-09-14T11:23:20.357Z,1.10
2017-09-14T11:25:47.965Z,1.93
2017-09-14T11:28:15.666Z,1.30
2017-09-14T11:30:43.366Z,5.07
2017-09-14T11:33:11.808Z,4.60
2017-09-14T11:35:39.410Z,2.80
2017-09-14T11:38:07.009Z,3.00
2017-09-14T11:40:34.643Z,2.03
2017-09-14T11:43:02.284Z,4.93
2017-09-14T11:45:29.912Z,1.20
2017-09-14T11:47:57.528Z,3.57
2017-09-14T11:50:25.154Z,2.23
2017-09-14T11:52:52.761Z,4.87
2017-09-14T11:55:20.373Z,3.47
2017-09-14T11:57:48.011Z,2.03
2017-09-14T12:00:15.689Z,6.23
2017-09-14T12:02:43.268Z,3.23
2017-09-14T12:05:11.832Z,8.73
2017-09-14T12:07:39.439Z,7.90
2017-09-14T12:10:07.045Z,2.23
2017-09-14T12:12:35.403Z,2.33
2017-09-14T12:15:03.014Z,7.13
2017-09-14T12:17:30.656Z,7.37
2017-09-14T12:19:58.336Z,8.83
2017-09-14T12:22:26.775Z,2.83
2017-09-14T12:24:54.548Z,3.27
2017-09-14T12:27:22.347Z,6.43
2017-09-14T12:29:50.099Z,3.73
2017-09-14T12:32:17.760Z,4.70
2017-09-14T12:34:45.444Z,3.90
2017-09-14T12:37:13.848Z,5.77
2017-09-14T12:39:41.489Z,2.23
2017-09-14T12:42:09.845Z,1.67
2017-09-14T12:44:37.537Z,7.30
2017-09-14T12:47:05.316Z,7.43
2017-09-14T12:49:33.024Z,5.57
2017-09-14T12:52:00.591Z,2.27
2017-09-14T12:54:28.225Z,3.13
2017-09-14T12:56:55.880Z,2.07
2017-09-14T12:59:25.109Z,1.13
2017-09-14T13:01:52.788Z,4.43
2017-09-14T13:04:21.176Z,4.03
2017-09-14T13:06:49.561Z,10.13
2017-09-14T13:09:17.966Z,1.43
2017-09-14T13:11:45.583Z,2.20
2017-09-14T13:14:14.347Z,5.10
2017-09-14T13:16:41.955Z,5.50
2017-09-14T13:19:09.756Z,5.23
2017-09-14T13:21:37.349Z,2.67
2017-09-14T13:24:04.999Z,2.50
2017-09-14T13:26:32.573Z,5.00
2017-09-14T13:29:00.194Z,1.57
2017-09-14T13:31:27.831Z,3.63
2017-09-14T13:33:55.434Z,4.73
2017-09-14T13:36:23.129Z,8.23
2017-09-14T13:38:50.830Z,4.03
2017-09-14T13:41:18.465Z,1.73
2017-09-14T13:43:47.664Z,3.23
2017-09-14T13:46:15.283Z,3.20
2017-09-14T13:48:42.913Z,2.53
2017-09-14T13:51:10.532Z,2.77
2017-09-14T13:53:38.106Z,2.70
2017-09-14T13:56:05.726Z,2.17
2017-09-14T13:58:33.400Z,6.30
2017-09-14T14:01:01.059Z,1.60
2017-09-14T14:03:28.746Z,7.93
2017-09-14T14:05:57.532Z,2.50
2017-09-14T14:08:25.192Z,2.53
2017-09-14T14:10:52.826Z,3.35
2017-09-14T14:13:20.464Z,1.77
2017-09-14T14:15:48.120Z,3.78
2017-09-14T14:18:16.452Z,2.20
2017-09-14T14:20:45.022Z,3.85
2017-09-14T14:23:12.616Z,1.65
2017-09-14T14:25:41.020Z,3.30
2017-09-14T14:28:09.563Z,2.25
2017-09-14T14:30:38.092Z,3.17
2017-09-14T14:33:05.732Z,1.33
2017-09-14T14:35:33.375Z,1.45
2017-09-14T14:38:02.334Z,0.82
2017-09-14T14:40:29.948Z,2.28
2017-09-14T14:42:57.768Z,1.35
2017-09-14T14:45:25.434Z,7.80
2017-09-14T14:47:52.993Z,2.85
2017-09-14T14:50:20.654Z,6.12
2017-09-14T14:52:48.268Z,1.15
2017-09-14T14:55:15.928Z,0.90
2017-09-14T14:57:43.615Z,2.45
2017-09-14T15:00:11.328Z,3.65
2017-09-14T15:02:39.829Z,4.25
2017-09-14T15:05:07.451Z,2.03
2017-09-14T15:07:35.888Z,4.68
2017-09-14T15:10:03.684Z,2.78
2017-09-14T15:12:31.264Z,1.05
2017-09-14T15:14:59.763Z,1.10
2017-09-14T15:17:28.301Z,1.55
2017-09-14T15:19:55.907Z,6.60
2017-09-14T15:22:24.258Z,2.45
2017-09-14T15:24:51.908Z,1.55
2017-09-14T15:27:19.575Z,1.92
2017-09-14T15:29:47.186Z,1.90
2017-09-14T15:32:14.839Z,1.58
2017-09-14T15:34:42.476Z,2.22
2017-09-14T15:37:15.681Z,2.83
2017-09-14T15:39:49.808Z,2.37
2017-09-14T15:42:22.979Z,1.67
2017-09-14T15:44:57.024Z,3.45
2017-09-14T15:47:25.484Z,1.42
2017-09-14T15:49:58.732Z,4.05
2017-09-14T15:52:26.367Z,1.80
2017-09-14T15:54:54.057Z,2.00
2017-09-14T15:57:21.693Z,1.37
2017-09-14T15:59:49.275Z,0.80
2017-09-14T16:02:17.236Z,3.25
2017-09-14T16:04:44.913Z,1.10
2017-09-14T16:07:12.508Z,2.87
2017-09-14T16:09:40.874Z,1.40
2017-09-14T16:12:08.486Z,1.23
2017-09-14T16:14:36.299Z,1.52
2017-09-14T16:17:03.951Z,0.98
2017-09-14T16:19:31.593Z,1.55
2017-09-14T16:21:59.281Z,0.88
2017-09-14T16:24:27.617Z,1.73
2017-09-14T16:26:55.215Z,1.95
2017-09-14T16:29:23.137Z,3.37
2017-09-14T16:31:50.753Z,2.17
2017-09-14T16:34:18.382Z,1.25
2017-09-14T16:36:45.976Z,2.25
2017-09-14T16:39:13.581Z,3.45
2017-09-14T16:41:41.378Z,1.35
2017-09-14T16:44:09.362Z,0.95
2017-09-14T16:46:37.019Z,2.03
2017-09-14T16:49:04.598Z,3.37
2017-09-14T16:51:32.208Z,2.05
2017-09-14T16:53:59.795Z,1.87
2017-09-14T16:56:27.370Z,2.58
2017-09-14T16:58:55.736Z,1.20
2017-09-14T17:01:23.412Z,3.33
2017-09-14T17:03:51.824Z,4.87
2017-09-14T17:06:19.423Z,2.67
2017-09-14T17:08:47.164Z,2.55
2017-09-14T17:11:14.830Z,2.75
2017-09-14T17:13:42.473Z,1.45
2017-09-14T17:16:10.133Z,1.87
2017-09-14T17:18:37.772Z,2.03
2017-09-14T17:21:06.185Z,2.12
2017-09-14T17:23:33.790Z,1.95
2017-09-14T17:26:02.196Z,4.03
2017-09-14T17:28:30.568Z,2.00
2017-09-14T17:30:58.172Z,3.28
2017-09-14T17:33:25.751Z,2.92
2017-09-14T17:35:54.126Z,3.53
2017-09-14T17:38:21.701Z,5.97
2017-09-14T17:40:49.338Z,2.92
2017-09-14T17:43:16.944Z,3.67
2017-09-14T17:45:45.323Z,2.50
2017-09-14T17:48:13.706Z,1.95
2017-09-14T17:50:41.327Z,3.85
2017-09-14T17:53:08.952Z,1.50
2017-09-14T17:55:36.512Z,2.55
2017-09-14T17:58:04.144Z,2.92
2017-09-14T18:00:31.790Z,21.65
2017-09-14T18:02:59.432Z,3.80
2017-09-14T18:05:27.806Z,3.00
2017-09-14T18:07:55.573Z,4.03
2017-09-14T18:10:23.327Z,3.28
2017-09-14T18:12:51.171Z,4.10
2017-09-14T18:15:19.880Z,2.75
2017-09-14T18:17:47.491Z,2.20
2017-09-14T18:20:15.869Z,4.93
2017-09-14T18:22:43.501Z,3.47
2017-09-14T18:25:11.074Z,2.80
2017-09-14T18:27:38.746Z,5.40
2017-09-14T18:30:06.329Z,3.90
2017-09-14T18:32:33.949Z,3.78
2017-09-14T18:35:02.365Z,2.05
2017-09-14T18:37:30.705Z,3.97
2017-09-14T18:39:58.332Z,3.25
2017-09-14T18:42:25.921Z,5.12
2017-09-14T18:44:53.523Z,3.92
2017-09-14T18:47:21.094Z,3.62
2017-09-14T18:49:48.766Z,4.35
2017-09-14T18:52:16.357Z,6.20
2017-09-14T18:54:43.977Z,10.32
2017-09-14T18:57:11.642Z,4.75
2017-09-14T18:59:39.250Z,7.93
2017-09-14T19:02:06.921Z,4.20
2017-09-14T19:04:34.550Z,3.30
2017-09-14T19:07:02.166Z,1.70
2017-09-14T19:09:29.768Z,4.25
2017-09-14T19:11:57.401Z,7.45
2017-09-14T19:14:25.295Z,3.22
2017-09-14T19:16:52.868Z,5.68
2017-09-14T19:19:20.445Z,2.22
2017-09-14T19:21:48.057Z,7.12
2017-09-14T19:24:15.694Z,2.60
2017-09-14T19:26:44.115Z,6.43
2017-09-14T19:29:11.749Z,8.10
2017-09-14T19:31:39.339Z,6.60
2017-09-14T19:34:06.945Z,8.60
2017-09-14T19:36:35.337Z,6.97
2017-09-14T19:39:02.965Z,6.25
2017-09-14T19:41:30.644Z,7.47
2017-09-14T19:43:58.221Z,6.40
2017-09-14T19:46:26.578Z,5.50
2017-09-14T19:48:54.217Z,12.37
2017-09-14T19:51:21.799Z,6.35
2017-09-14T19:53:49.396Z,9.77
2017-09-14T19:56:17.074Z,6.95
2017-09-14T19:58:44.716Z,7.20
2017-09-14T20:01:13.070Z,12.60
2017-09-14T20:03:40.785Z,9.02
2017-09-14T20:06:08.393Z,7.87
2017-09-14T20:08:36.747Z,9.75
2017-09-14T20:11:04.409Z,5.95
2017-09-14T20:13:32.029Z,12.25
2017-09-14T20:15:59.668Z,9.80
2017-09-14T20:18:28.021Z,4.55
2017-09-14T20:20:55.711Z,10.68
2017-09-14T20:23:24.050Z,8.13
2017-09-14T20:25:51.652Z,13.23
2017-09-14T20:28:19.995Z,11.88
2017-09-14T20:30:47.623Z,8.90
2017-09-14T20:33:15.255Z,9.27
2017-09-14T20:35:42.957Z,7.82
2017-09-14T20:38:10.586Z,7.53
2017-09-14T20:40:38.266Z,4.47
2017-09-14T20:43:05.902Z,6.57
2017-09-14T20:45:34.242Z,4.18
2017-09-14T20:48:01.837Z,7.62
2017-09-14T20:50:30.202Z,11.70
2017-09-14T20:52:57.808Z,5.12
2017-09-14T20:55:25.419Z,7.20
2017-09-14T20:57:53.162Z,9.20
2017-09-14T21:00:20.825Z,7.10
2017-09-14T21:02:48.616Z,10.63
2017-09-14T21:05:17.739Z,10.00
2017-09-14T21:07:45.380Z,10.00
2017-09-14T21:10:13.099Z,5.90
2017-09-14T21:12:40.825Z,5.90
2017-09-14T21:15:08.443Z,17.35
2017-09-14T21:17:36.056Z,6.28
2017-09-14T21:20:03.655Z,7.82
2017-09-14T21:22:31.251Z,9.82
2017-09-14T21:24:58.895Z,9.82
2017-09-14T21:27:27.526Z,10.43
2017-09-14T21:29:55.136Z,7.05
2017-09-14T21:32:22.771Z,4.50
2017-09-14T21:34:50.382Z,6.78
2017-09-14T21:37:19.244Z,9.18
2017-09-14T21:39:46.884Z,10.88
2017-09-14T21:42:14.489Z,11.15
2017-09-14T21:44:42.875Z,7.12
2017-09-14T21:47:11.250Z,6.50
2017-09-14T21:49:39.623Z,8.68
2017-09-14T21:52:07.268Z,8.52
2017-09-14T21:54:35.571Z,15.52
2017-09-14T21:57:03.201Z,11.40
2017-09-14T21:59:30.799Z,12.32
2017-09-14T22:01:58.450Z,19.20
2017-09-14T22:04:26.077Z,5.90
2017-09-14T22:06:53.768Z,9.80
2017-09-14T22:09:21.408Z,9.35
2017-09-14T22:11:49.012Z,16.95
2017-09-14T22:14:16.673Z,9.98
2017-09-14T22:16:44.293Z,11.52
2017-09-14T22:19:11.902Z,6.05
2017-09-14T22:21:39.540Z,15.13
2017-09-14T22:24:07.222Z,12.13
2017-09-14T22:26:35.186Z,17.90
2017-09-14T22:29:02.790Z,13.60
2017-09-14T22:31:30.464Z,5.80
2017-09-14T22:33:58.045Z,4.62
2017-09-14T22:36:26.402Z,9.43
2017-09-14T22:38:53.996Z,15.18
2017-09-14T22:41:22.387Z,7.70
2017-09-14T22:43:49.981Z,9.15
2017-09-14T22:46:17.650Z,11.80
2017-09-14T22:48:46.169Z,6.22
2017-09-14T22:51:13.781Z,11.75
2017-09-14T22:53:41.367Z,21.35
2017-09-14T22:56:08.973Z,16.87
2017-09-14T22:58:36.612Z,12.37
2017-09-14T23:01:04.204Z,15.27
2017-09-14T23:03:31.794Z,5.78
2017-09-14T23:05:59.451Z,14.55
2017-09-14T23:08:27.026Z,10.23
2017-09-14T23:10:54.725Z,5.30
2017-09-14T23:13:23.100Z,17.40
2017-09-14T23:15:51.451Z,13.25
2017-09-14T23:18:19.094Z,9.40
2017-09-14T23:20:46.736Z,7.45
2017-09-14T23:23:14.310Z,7.32
2017-09-14T23:25:41.893Z,12.13
2017-09-14T23:28:09.509Z,8.60
2017-09-14T23:30:37.174Z,5.43
2017-09-14T23:33:04.785Z,16.87
2017-09-14T23:35:32.434Z,16.87
2017-09-14T23:38:00.095Z,11.80
2017-09-14T23:40:27.700Z,22.40
2017-09-14T23:42:56.050Z,14.02
2017-09-14T23:45:24.067Z,12.40
2017-09-14T23:47:51.653Z,11.35
2017-09-14T23:50:19.273Z,19.23
2017-09-14T23:52:46.925Z,13.95
2017-09-14T23:55:15.325Z,9.88
2017-09-14T23:57:42.932Z,16.77
